Time;durP1;ratioP1;P1;durP2;ratioP2;P2;SDS_P1;SDS_P2;PMS_P1;PMS_P2;Temp;Humidity;BMP_temperature;BMP_pressure;BME280_temperature;BME280_humidity;BME280_pressure;Samples;Min_cycle;Max_cycle;Signal;HPM_P1;HPM_P2
2022/04/10 00:00:42;;;;;;;2.90;1.70;;;3.50;99.90;;;;;;5241964;28;20177;-50
2022/04/10 00:03:12;;;;;;;1.40;1.30;;;3.50;99.90;;;;;;5240537;28;20455;-49
2022/04/10 00:05:43;;;;;;;16.40;2.17;;;3.60;99.90;;;;;;5239975;28;20444;-49
2022/04/10 00:08:13;;;;;;;6.20;2.27;;;3.70;99.90;;;;;;5231413;28;20301;-49
2022/04/10 00:10:44;;;;;;;4.07;1.47;;;3.60;99.90;;;;;;5237800;28;20170;-48
2022/04/10 00:13:15;;;;;;;5.80;1.80;;;3.50;99.90;;;;;;5238480;28;20229;-49
2022/04/10 00:15:45;;;;;;;2.53;1.47;;;3.60;99.90;;;;;;5231765;28;20436;-49
2022/04/10 00:18:16;;;;;;;4.60;1.43;;;3.60;99.90;;;;;;5236112;28;20186;-49
2022/04/10 00:20:46;;;;;;;5.73;2.10;;;3.60;99.90;;;;;;5237178;28;20273;-50
2022/04/10 00:23:17;;;;;;;3.17;1.97;;;3.50;99.90;;;;;;5239868;28;20677;-48
2022/04/10 00:25:47;;;;;;;9.13;2.17;;;3.40;99.90;;;;;;5236656;28;20182;-49
2022/04/10 00:28:18;;;;;;;3.57;1.93;;;3.40;99.90;;;;;;5243653;28;20606;-50
2022/04/10 00:30:48;;;;;;;10.80;1.80;;;3.40;99.90;;;;;;5244294;28;20186;-47
2022/04/10 00:33:19;;;;;;;8.13;1.60;;;3.30;99.90;;;;;;5240741;28;20188;-52
2022/04/10 00:35:49;;;;;;;8.20;2.60;;;3.30;99.90;;;;;;5250401;28;20198;-49
2022/04/10 00:38:20;;;;;;;10.47;2.03;;;3.20;99.90;;;;;;5239646;28;20239;-49
2022/04/10 00:40:50;;;;;;;5.17;2.10;;;3.30;99.90;;;;;;5235387;28;20534;-49
2022/04/10 00:43:21;;;;;;;2.50;2.30;;;3.30;99.90;;;;;;5242419;28;20202;-51
2022/04/10 00:45:51;;;;;;;3.63;2.07;;;3.50;99.90;;;;;;5244972;28;20684;-49
2022/04/10 00:48:22;;;;;;;3.90;2.40;;;3.50;99.90;;;;;;5243802;28;20278;-49
2022/04/10 00:53:43;;;;;;;5.03;2.70;;;3.70;99.90;;;;;;5238437;28;20708;-48
2022/04/10 00:56:14;;;;;;;1.83;1.73;;;3.70;99.90;;;;;;5242211;28;20440;-49
2022/04/10 00:58:44;;;;;;;5.80;2.10;;;3.60;99.90;;;;;;5245441;28;20440;-49
2022/04/10 01:01:15;;;;;;;3.70;2.00;;;3.50;99.90;;;;;;5243199;28;20576;-50
2022/04/10 01:03:45;;;;;;;2.47;2.27;;;3.40;99.90;;;;;;5238883;28;20255;-49
2022/04/10 01:06:16;;;;;;;4.93;2.13;;;3.40;99.90;;;;;;5235939;28;20505;-50
2022/04/10 01:08:46;;;;;;;5.27;2.93;;;3.30;99.90;;;;;;5241229;28;20249;-47
2022/04/10 01:11:17;;;;;;;6.13;2.90;;;3.40;99.90;;;;;;5244607;28;20211;-49
2022/04/10 01:13:48;;;;;;;9.73;2.67;;;3.30;99.90;;;;;;5249797;28;20209;-48
2022/04/10 01:16:21;;;;;;;7.87;3.00;;;3.30;99.90;;;;;;5240865;28;20186;-48
2022/04/10 01:18:52;;;;;;;5.70;3.40;;;3.20;99.90;;;;;;5246395;28;20956;-50
2022/04/10 01:21:25;;;;;;;3.57;2.40;;;3.20;99.90;;;;;;5244598;28;20475;-48
2022/04/10 01:23:56;;;;;;;2.37;2.20;;;3.10;99.90;;;;;;5242856;28;20986;-48
2022/04/10 01:26:28;;;;;;;2.77;2.53;;;3.10;99.90;;;;;;5240068;28;20498;-50
2022/04/10 01:29:03;;;;;;;5.77;2.70;;;3.10;99.90;;;;;;5240750;28;20482;-49
2022/04/10 01:31:36;;;;;;;2.17;2.07;;;3.10;99.90;;;;;;5239953;28;20486;-48
2022/04/10 01:34:08;;;;;;;5.50;3.10;;;3.20;99.90;;;;;;5241434;28;20514;-48
2022/04/10 01:36:40;;;;;;;5.53;2.80;;;3.30;99.90;;;;;;5242635;28;20946;-49
2022/04/10 01:39:12;;;;;;;2.13;1.93;;;3.30;99.90;;;;;;5246360;28;20440;-49
2022/04/10 01:41:46;;;;;;;7.23;2.90;;;3.30;99.90;;;;;;5243664;28;20457;-48
2022/04/10 01:44:16;;;;;;;3.23;2.83;;;3.20;99.90;;;;;;5242200;28;20432;-48
2022/04/10 01:46:47;;;;;;;5.20;2.57;;;3.20;99.90;;;;;;5240412;28;20441;-48
2022/04/10 01:49:17;;;;;;;4.63;2.90;;;3.10;99.90;;;;;;5238186;28;20206;-50
2022/04/10 01:51:48;;;;;;;3.43;2.43;;;3.10;99.90;;;;;;5234336;28;20195;-49
2022/04/10 01:54:18;;;;;;;6.93;2.50;;;3.10;99.90;;;;;;5242673;28;20201;-49
2022/04/10 01:56:49;;;;;;;5.50;2.90;;;3.00;99.90;;;;;;5241154;28;20179;-48
2022/04/10 01:59:19;;;;;;;7.10;3.00;;;3.00;99.90;;;;;;5240587;28;20269;-49
2022/04/10 02:01:50;;;;;;;7.63;3.10;;;2.90;99.90;;;;;;5243304;28;20654;-49
2022/04/10 02:04:20;;;;;;;4.17;2.70;;;2.90;99.90;;;;;;5237665;28;20179;-47
2022/04/10 02:06:51;;;;;;;11.43;2.37;;;2.90;99.90;;;;;;5238184;28;20539;-47
2022/04/10 02:09:21;;;;;;;6.03;2.50;;;2.80;99.90;;;;;;5240248;28;20274;-49
2022/04/10 02:11:52;;;;;;;12.10;2.10;;;2.80;99.90;;;;;;5246246;28;20225;-50
2022/04/10 02:14:22;;;;;;;3.00;2.60;;;2.80;99.90;;;;;;5245406;28;20174;-50
2022/04/10 02:16:53;;;;;;;3.40;2.70;;;2.80;99.90;;;;;;5241199;28;20178;-47
2022/04/10 02:19:23;;;;;;;13.90;3.23;;;2.80;99.90;;;;;;5240828;28;20213;-50
2022/04/10 02:21:57;;;;;;;4.47;3.50;;;2.80;99.90;;;;;;5230844;28;20240;-48
2022/04/10 02:24:27;;;;;;;5.77;2.03;;;2.90;99.90;;;;;;5235911;28;20246;-47
2022/04/10 02:26:58;;;;;;;8.73;2.10;;;3.00;99.90;;;;;;5241334;28;20448;-49
2022/04/10 02:29:28;;;;;;;8.73;2.83;;;3.00;99.90;;;;;;5238081;28;20202;-47
2022/04/10 02:31:59;;;;;;;3.80;2.97;;;3.00;99.90;;;;;;5239718;28;20258;-52
2022/04/10 02:34:29;;;;;;;3.00;2.13;;;3.00;99.90;;;;;;5238805;28;20178;-49
2022/04/10 02:37:00;;;;;;;6.77;2.73;;;3.00;99.90;;;;;;5238590;28;20179;-49
2022/04/10 02:39:30;;;;;;;4.93;2.70;;;2.90;99.90;;;;;;5245231;28;20266;-49
2022/04/10 02:42:01;;;;;;;2.63;2.27;;;3.00;99.90;;;;;;5242846;28;20198;-49
2022/04/10 02:44:31;;;;;;;11.93;3.37;;;3.00;99.90;;;;;;5239099;28;20181;-48
2022/04/10 02:47:02;;;;;;;2.93;2.23;;;3.10;99.90;;;;;;5241452;28;20187;-48
2022/04/10 02:49:32;;;;;;;2.83;2.63;;;3.10;99.90;;;;;;5240186;28;20209;-48
2022/04/10 02:52:03;;;;;;;14.30;3.90;;;3.10;99.90;;;;;;5246973;28;20206;-48
2022/04/10 02:54:34;;;;;;;4.30;2.80;;;3.20;99.90;;;;;;5244445;28;21018;-49
2022/04/10 02:57:05;;;;;;;8.50;3.93;;;3.20;99.90;;;;;;5241647;28;20471;-48
2022/04/10 02:59:35;;;;;;;7.63;3.50;;;3.20;99.90;;;;;;5243811;28;20182;-50
2022/04/10 03:02:06;;;;;;;10.80;3.33;;;3.20;99.90;;;;;;5241259;28;20214;-50
2022/04/10 03:04:36;;;;;;;2.87;2.67;;;3.20;99.90;;;;;;5245748;28;20674;-48
2022/04/10 03:07:07;;;;;;;8.43;3.50;;;3.20;99.90;;;;;;5241033;28;20316;-49
2022/04/10 03:09:37;;;;;;;9.20;3.37;;;3.30;99.90;;;;;;5244624;28;20179;-50
2022/04/10 03:12:08;;;;;;;10.27;3.40;;;3.40;99.90;;;;;;5246283;28;20191;-49
2022/04/10 03:14:39;;;;;;;3.17;2.43;;;3.40;99.90;;;;;;5241428;28;20182;-48
2022/04/10 03:17:10;;;;;;;8.97;3.70;;;3.40;99.90;;;;;;5238998;28;20788;-49
2022/04/10 03:19:40;;;;;;;11.47;3.70;;;3.40;99.90;;;;;;5243625;28;20258;-49
2022/04/10 03:22:11;;;;;;;5.90;3.07;;;3.30;99.90;;;;;;5239821;23;20680;-45
2022/04/10 03:24:41;;;;;;;7.30;2.93;;;3.30;99.90;;;;;;5170668;28;20567;-46
2022/04/10 03:27:12;;;;;;;6.17;3.17;;;3.30;99.90;;;;;;5171002;28;20705;-47
2022/04/10 03:29:42;;;;;;;9.40;3.20;;;3.30;99.90;;;;;;5185941;28;20264;-47
2022/04/10 03:32:13;;;;;;;8.90;2.80;;;3.30;99.90;;;;;;5186084;28;20555;-48
2022/04/10 03:34:43;;;;;;;4.37;2.40;;;3.30;99.90;;;;;;5183951;28;20176;-47
2022/04/10 03:37:14;;;;;;;7.63;3.23;;;3.30;99.90;;;;;;5187197;28;20212;-49
2022/04/10 03:39:44;;;;;;;7.20;2.40;;;3.20;99.90;;;;;;5167072;28;20271;-47
2022/04/10 03:42:15;;;;;;;11.93;3.33;;;3.20;99.90;;;;;;5186171;28;20545;-46
2022/04/10 03:44:45;;;;;;;5.40;2.57;;;3.20;99.90;;;;;;5183918;28;20195;-47
2022/04/10 03:47:16;;;;;;;8.57;3.40;;;3.10;99.90;;;;;;5183729;28;20211;-47
2022/04/10 03:49:46;;;;;;;5.07;3.17;;;3.20;99.90;;;;;;5179864;28;20180;-49
2022/04/10 03:52:17;;;;;;;11.53;3.40;;;3.20;99.90;;;;;;5179238;28;20216;-47
2022/04/10 03:54:47;;;;;;;7.73;3.93;;;3.30;99.90;;;;;;5176696;28;20189;-51
2022/04/10 03:57:18;;;;;;;3.10;2.30;;;3.30;99.90;;;;;;5184192;28;20211;-47
2022/04/10 03:59:48;;;;;;;15.23;3.43;;;3.30;99.90;;;;;;5184596;28;20261;-47
2022/04/10 04:02:19;;;;;;;5.90;3.00;;;3.20;99.90;;;;;;5178688;28;20204;-47
2022/04/10 04:04:50;;;;;;;8.23;3.07;;;3.20;99.90;;;;;;5181674;28;20715;-47
2022/04/10 04:07:21;;;;;;;5.20;2.77;;;3.20;99.90;;;;;;5185840;28;20185;-48
2022/04/10 04:09:52;;;;;;;3.30;2.40;;;3.30;99.90;;;;;;5184128;28;20445;-48
2022/04/10 04:12:22;;;;;;;9.77;2.93;;;3.30;99.90;;;;;;5180476;28;20450;-48
2022/04/10 04:14:53;;;;;;;5.60;2.43;;;3.30;99.90;;;;;;5184034;28;20180;-47
2022/04/10 04:17:23;;;;;;;8.53;2.83;;;3.40;99.90;;;;;;5179415;28;20234;-46
2022/04/10 04:19:54;;;;;;;5.50;2.33;;;3.40;99.90;;;;;;5168115;28;20284;-48
2022/04/10 04:22:24;;;;;;;13.87;3.13;;;3.30;99.90;;;;;;5170165;28;20212;-47
2022/04/10 04:24:55;;;;;;;10.43;3.90;;;3.30;99.90;;;;;;5187023;28;20189;-46
2022/04/10 04:27:25;;;;;;;5.37;3.50;;;3.30;99.90;;;;;;5167846;28;20267;-48
2022/04/10 04:29:56;;;;;;;10.53;3.20;;;3.30;99.90;;;;;;5184764;28;20706;-50
2022/04/10 04:32:27;;;;;;;11.03;3.50;;;3.30;99.90;;;;;;5184902;28;20239;-47
2022/04/10 04:34:57;;;;;;;11.33;3.20;;;3.20;99.90;;;;;;5185694;28;20192;-47
2022/04/10 04:37:28;;;;;;;3.20;2.90;;;3.30;99.90;;;;;;5187684;28;21601;-46
2022/04/10 04:39:58;;;;;;;10.50;2.87;;;3.30;99.90;;;;;;5167404;28;20215;-48
2022/04/10 04:42:29;;;;;;;4.50;2.20;;;3.30;99.90;;;;;;5184669;28;20212;-48
2022/04/10 04:44:59;;;;;;;10.37;2.73;;;3.40;99.90;;;;;;5183749;28;20554;-47
2022/04/10 04:47:30;;;;;;;16.70;3.10;;;3.40;99.90;;;;;;5185560;28;20246;-46
2022/04/10 04:50:01;;;;;;;6.00;2.20;;;3.50;99.90;;;;;;5161426;28;20230;-47
2022/04/10 04:52:31;;;;;;;12.00;2.97;;;3.40;99.90;;;;;;5185277;28;20249;-46
2022/04/10 04:55:02;;;;;;;5.17;2.50;;;3.50;99.90;;;;;;5182961;28;20193;-48
2022/04/10 04:57:32;;;;;;;9.77;2.67;;;3.50;99.90;;;;;;5183275;28;20597;-48
2022/04/10 05:00:03;;;;;;;4.77;2.53;;;3.50;99.90;;;;;;5173330;28;20215;-48
2022/04/10 05:02:34;;;;;;;9.00;2.43;;;3.40;99.90;;;;;;5156800;28;20212;-48
2022/04/10 05:05:05;;;;;;;9.03;2.37;;;3.40;99.90;;;;;;5182326;28;20454;-48
2022/04/10 05:07:36;;;;;;;21.00;2.87;;;3.50;99.90;;;;;;5179553;28;20296;-48
2022/04/10 05:10:06;;;;;;;7.47;3.80;;;3.40;99.90;;;;;;5187446;28;20440;-47
2022/04/10 05:12:37;;;;;;;16.47;3.30;;;3.50;99.90;;;;;;5184826;28;20738;-49
2022/04/10 05:15:08;;;;;;;7.00;3.00;;;3.60;99.90;;;;;;5186077;28;20207;-47
2022/04/10 05:17:38;;;;;;;6.80;3.53;;;4.10;99.90;;;;;;5185224;28;20219;-48
2022/04/10 05:20:10;;;;;;;16.27;3.37;;;4.10;99.90;;;;;;5184493;28;20439;-48
2022/04/10 05:22:40;;;;;;;8.20;2.87;;;4.20;99.90;;;;;;5170354;28;20266;-46
2022/04/10 05:25:11;;;;;;;9.27;2.23;;;4.20;99.90;;;;;;5186190;28;20439;-49
2022/04/10 05:27:41;;;;;;;12.30;3.10;;;4.40;99.90;;;;;;5185793;28;20205;-48
2022/04/10 05:30:12;;;;;;;9.77;2.87;;;4.40;99.90;;;;;;5183438;28;20185;-48
2022/04/10 05:32:43;;;;;;;12.93;2.10;;;4.40;99.90;;;;;;5169919;28;20251;-47
2022/04/10 05:35:14;;;;;;;7.10;2.30;;;4.40;99.90;;;;;;5191128;28;20188;-48
2022/04/10 05:37:44;;;;;;;12.10;2.77;;;4.50;99.90;;;;;;5189990;28;20204;-46
2022/04/10 05:40:16;;;;;;;13.00;3.13;;;4.60;99.90;;;;;;5186112;28;20439;-47
2022/04/10 05:42:47;;;;;;;7.70;2.60;;;4.70;99.90;;;;;;5187756;28;20204;-47
2022/04/10 05:45:17;;;;;;;9.30;3.03;;;4.50;99.90;;;;;;5169791;28;20435;-47
2022/04/10 05:47:48;;;;;;;14.97;3.10;;;4.50;99.90;;;;;;5190516;28;20215;-47
2022/04/10 05:50:18;;;;;;;9.47;2.77;;;4.40;99.90;;;;;;5172667;28;20189;-46
2022/04/10 05:52:51;;;;;;;3.97;2.63;;;4.50;99.90;;;;;;5189811;28;20207;-46
2022/04/10 05:55:22;;;;;;;2.40;2.13;;;4.40;99.90;;;;;;5190498;28;20250;-46
2022/04/10 05:57:53;;;;;;;8.90;2.67;;;4.20;99.90;;;;;;5190507;28;20931;-48
2022/04/10 06:00:24;;;;;;;6.83;2.70;;;4.20;99.90;;;;;;5189046;28;20450;-47
2022/04/10 06:02:55;;;;;;;4.20;3.00;;;4.60;99.90;;;;;;5188572;28;20220;-48
2022/04/10 06:05:25;;;;;;;5.83;2.33;;;4.70;99.90;;;;;;5189304;28;20439;-46
2022/04/10 06:07:56;;;;;;;10.20;2.93;;;4.60;99.90;;;;;;5190844;28;20287;-47
2022/04/10 06:10:27;;;;;;;4.83;1.93;;;4.60;99.90;;;;;;5172927;28;20181;-44
2022/04/10 06:13:10;;;;;;;14.10;2.77;;;4.70;99.90;;;;;;5173562;28;20219;-46
2022/04/10 06:15:41;;;;;;;7.60;2.60;;;4.80;99.90;;;;;;5168683;28;20181;-46
2022/04/10 06:18:11;;;;;;;9.40;3.20;;;4.90;99.90;;;;;;5187627;28;20447;-46
2022/04/10 06:20:42;;;;;;;8.60;2.30;;;4.90;99.90;;;;;;5188412;28;20241;-47
2022/04/10 06:23:12;;;;;;;14.10;2.70;;;4.90;99.90;;;;;;5189170;28;20246;-50
2022/04/10 06:25:43;;;;;;;9.23;2.77;;;5.00;99.90;;;;;;5190369;28;20268;-48
2022/04/10 06:28:13;;;;;;;8.67;2.80;;;5.00;99.90;;;;;;5188793;28;20237;-47
2022/04/10 06:30:45;;;;;;;6.50;2.80;;;5.10;99.90;;;;;;5190422;28;20209;-48
2022/04/10 06:33:15;;;;;;;4.13;2.80;;;5.10;99.90;;;;;;5173256;28;20196;-49
2022/04/10 06:35:46;;;;;;;6.47;2.33;;;5.00;99.90;;;;;;5186409;28;20452;-47
2022/04/10 06:38:17;;;;;;;6.00;3.07;;;5.00;99.90;;;;;;5167161;28;20196;-47
2022/04/10 06:40:51;;;;;;;15.17;2.57;;;5.00;99.90;;;;;;5189542;28;20190;-48
2022/04/10 06:43:21;;;;;;;6.33;2.20;;;5.00;99.90;;;;;;5190521;28;20530;-49
2022/04/10 06:45:52;;;;;;;8.53;2.50;;;5.00;99.90;;;;;;5185977;28;20565;-49
2022/04/10 06:48:22;;;;;;;13.50;3.00;;;5.00;99.90;;;;;;5189998;28;20226;-47
2022/04/10 06:50:53;;;;;;;11.97;2.20;;;4.80;99.90;;;;;;5188904;28;20177;-47
2022/04/10 06:53:24;;;;;;;14.00;3.37;;;4.80;99.90;;;;;;5188424;28;20201;-47
2022/04/10 06:55:54;;;;;;;7.93;2.90;;;4.70;99.90;;;;;;5187126;28;20181;-47
2022/04/10 06:58:25;;;;;;;6.40;2.40;;;4.80;99.90;;;;;;5187635;28;20717;-48
2022/04/10 07:00:55;;;;;;;6.30;2.37;;;5.00;99.90;;;;;;5183375;28;20203;-48
2022/04/10 07:03:26;;;;;;;12.73;2.53;;;5.20;99.90;;;;;;5187102;28;20222;-48
2022/04/10 07:05:56;;;;;;;5.80;2.17;;;5.40;99.90;;;;;;5187981;28;20648;-48
2022/04/10 07:08:27;;;;;;;7.40;2.30;;;5.90;99.90;;;;;;5187777;28;20306;-49
2022/04/10 07:10:58;;;;;;;15.67;3.20;;;6.40;99.90;;;;;;5189139;28;20186;-48
2022/04/10 07:13:28;;;;;;;6.53;2.57;;;6.50;99.90;;;;;;5180406;28;20199;-47
2022/04/10 07:15:59;;;;;;;11.50;2.63;;;6.50;99.90;;;;;;5183753;28;20179;-47
2022/04/10 07:18:29;;;;;;;14.07;2.83;;;6.50;99.90;;;;;;5186462;28;20191;-48
2022/04/10 07:21:00;;;;;;;19.97;4.00;;;6.50;99.90;;;;;;5185179;28;20189;-48
2022/04/10 07:23:43;;;;;;;4.30;1.70;;;6.20;99.90;;;;;;5185735;28;20713;-47
2022/04/10 07:26:15;;;;;;;5.83;2.90;;;6.10;99.90;;;;;;5180855;28;20654;-50
2022/04/10 07:28:45;;;;;;;5.57;2.20;;;5.80;99.90;;;;;;5184695;28;21198;-48
2022/04/10 07:31:17;;;;;;;3.83;2.37;;;5.80;99.90;;;;;;5180177;28;20511;-48
2022/04/10 07:33:47;;;;;;;5.37;2.03;;;5.70;99.90;;;;;;5182896;28;20643;-48
2022/04/10 07:36:18;;;;;;;8.93;2.97;;;5.80;99.90;;;;;;5181750;28;20446;-49
2022/04/10 07:38:49;;;;;;;7.33;3.07;;;6.10;99.90;;;;;;5183838;28;20195;-49
2022/04/10 07:41:19;;;;;;;11.23;2.77;;;6.20;99.90;;;;;;5180084;28;20194;-48
2022/04/10 07:43:50;;;;;;;11.67;2.40;;;6.30;99.90;;;;;;5185129;28;20446;-49
2022/04/10 07:49:09;;;;;;;10.97;2.63;;;6.30;99.90;;;;;;5180586;28;20285;-47
2022/04/10 07:51:40;;;;;;;4.30;2.23;;;6.30;99.90;;;;;;5178344;28;20454;-50
2022/04/10 07:54:11;;;;;;;3.23;2.00;;;6.50;99.90;;;;;;5167536;28;20212;-48
2022/04/10 07:56:43;;;;;;;13.53;3.03;;;6.90;99.90;;;;;;5167211;28;20206;-48
2022/04/10 07:59:15;;;;;;;15.17;3.10;;;6.90;99.90;;;;;;5185196;28;20190;-50
2022/04/10 08:01:46;;;;;;;9.10;2.50;;;6.60;99.90;;;;;;5180010;28;20473;-48
2022/04/10 08:04:17;;;;;;;20.30;2.97;;;6.70;99.90;;;;;;5183642;28;20938;-48
2022/04/10 08:06:47;;;;;;;7.90;2.90;;;6.70;99.90;;;;;;5185346;28;20198;-48
2022/04/10 08:09:18;;;;;;;7.80;3.23;;;6.40;99.90;;;;;;5184083;28;20226;-49
2022/04/10 08:11:49;;;;;;;7.40;2.50;;;6.20;99.90;;;;;;5184482;28;21607;-49
2022/04/10 08:14:20;;;;;;;4.87;2.37;;;6.10;99.90;;;;;;5184887;28;20211;-47
2022/04/10 08:16:50;;;;;;;7.10;2.47;;;5.80;99.90;;;;;;5166816;28;20911;-49
2022/04/10 08:19:21;;;;;;;6.47;3.10;;;5.90;99.90;;;;;;5184409;28;20441;-48
2022/04/10 08:21:51;;;;;;;7.13;2.73;;;6.10;99.90;;;;;;5182918;28;20211;-48
2022/04/10 08:24:22;;;;;;;7.00;3.10;;;6.30;99.90;;;;;;5184023;28;20187;-50
2022/04/10 08:26:52;;;;;;;11.70;3.20;;;6.70;99.90;;;;;;5184481;28;20311;-49
2022/04/10 08:29:23;;;;;;;12.83;2.33;;;7.50;99.90;;;;;;5184610;28;20227;-48
2022/04/10 08:31:53;;;;;;;8.00;2.83;;;8.00;99.90;;;;;;5184649;28;20204;-52
2022/04/10 08:34:24;;;;;;;5.90;2.60;;;8.70;99.90;;;;;;5157732;28;20188;-48
2022/04/10 08:36:54;;;;;;;14.43;3.00;;;9.00;96.30;;;;;;5184472;28;20226;-51
2022/04/10 08:39:26;;;;;;;9.20;2.83;;;9.50;96.30;;;;;;5177839;28;20223;-49
2022/04/10 08:42:00;;;;;;;10.57;3.67;;;10.00;89.90;;;;;;5164014;28;20211;-46
2022/04/10 08:44:32;;;;;;;13.20;2.70;;;9.40;85.20;;;;;;5178462;28;20526;-52
2022/04/10 08:47:03;;;;;;;9.73;2.90;;;9.20;88.40;;;;;;5182358;28;20443;-50
2022/04/10 08:49:35;;;;;;;7.13;2.80;;;9.20;90.10;;;;;;5182781;28;20522;-50
2022/04/10 08:52:05;;;;;;;7.53;3.13;;;9.20;87.90;;;;;;5164168;28;20458;-49
2022/04/10 08:54:36;;;;;;;15.10;3.00;;;9.30;87.40;;;;;;5161057;28;20428;-50
2022/04/10 08:57:07;;;;;;;13.97;2.50;;;9.30;86.70;;;;;;5180469;28;20271;-48
2022/04/10 08:59:39;;;;;;;6.53;2.50;;;9.50;86.20;;;;;;5173183;28;20226;-51
2022/04/10 09:02:10;;;;;;;11.83;3.30;;;9.20;85.70;;;;;;5174356;28;20923;-49
2022/04/10 09:04:41;;;;;;;10.07;2.97;;;8.90;90.20;;;;;;5170761;28;20530;-48
2022/04/10 09:07:12;;;;;;;8.27;3.00;;;8.30;93.00;;;;;;5184061;28;20526;-48
2022/04/10 09:09:56;;;;;;;5.40;2.40;;;7.60;99.90;;;;;;5184563;28;20216;-51
2022/04/10 09:12:26;;;;;;;11.67;2.53;;;7.30;99.90;;;;;;5189512;28;20227;-49
2022/04/10 09:15:03;;;;;;;24.00;4.27;;;7.20;99.90;;;;;;5183313;28;20554;-49
2022/04/10 09:17:34;;;;;;;7.00;2.77;;;7.10;99.90;;;;;;5188214;28;20555;-49
2022/04/10 09:20:05;;;;;;;4.47;2.60;;;7.30;99.90;;;;;;5177492;28;20435;-49
2022/04/10 09:22:37;;;;;;;5.10;2.00;;;7.90;99.90;;;;;;5184883;28;20216;-49
2022/04/10 09:25:13;;;;;;;15.23;2.70;;;8.20;99.90;;;;;;5184122;28;20199;-49
2022/04/10 09:27:49;;;;;;;6.63;2.63;;;8.60;99.90;;;;;;5183912;28;20463;-48
2022/04/10 09:30:20;;;;;;;10.83;3.23;;;8.60;99.80;;;;;;5180253;28;20437;-51
2022/04/10 09:32:52;;;;;;;11.43;3.20;;;8.70;99.10;;;;;;5179285;28;20473;-50
2022/04/10 09:35:24;;;;;;;10.30;3.30;;;8.50;99.10;;;;;;5178769;28;20462;-51
2022/04/10 09:37:58;;;;;;;6.33;2.77;;;8.40;99.50;;;;;;5185489;28;20443;-50
2022/04/10 09:40:33;;;;;;;5.90;2.63;;;8.40;99.70;;;;;;5185613;28;20447;-50
2022/04/10 09:43:05;;;;;;;7.20;3.00;;;8.50;99.90;;;;;;5182635;28;20493;-49
2022/04/10 09:45:41;;;;;;;15.00;2.90;;;8.70;97.30;;;;;;5183564;28;20423;-48
2022/04/10 09:48:21;;;;;;;9.90;3.00;;;8.80;96.70;;;;;;5186222;28;20552;-52
2022/04/10 09:50:53;;;;;;;25.43;9.30;;;9.00;96.50;;;;;;5182885;28;20435;-50
2022/04/10 09:53:26;;;;;;;26.23;7.80;;;9.30;90.60;;;;;;5178453;28;20510;-50
2022/04/10 09:56:04;;;;;;;7.27;2.87;;;9.20;89.80;;;;;;5179684;28;20819;-50
2022/04/10 09:58:35;;;;;;;10.77;2.90;;;9.00;90.90;;;;;;5183774;28;20423;-49
2022/04/10 10:01:10;;;;;;;11.47;3.23;;;8.50;95.70;;;;;;5187970;28;20442;-52
2022/04/10 10:03:41;;;;;;;11.97;6.40;;;8.00;99.50;;;;;;5185454;28;20426;-51
2022/04/10 10:06:13;;;;;;;22.80;7.60;;;8.00;99.80;;;;;;5187268;28;20786;-50
2022/04/10 10:08:44;;;;;;;6.73;2.60;;;8.10;99.70;;;;;;5164822;28;20463;-52
2022/04/10 10:11:16;;;;;;;13.63;2.10;;;8.10;93.00;;;;;;5162981;28;20597;-49
2022/04/10 10:13:47;;;;;;;7.17;2.80;;;8.10;93.30;;;;;;5165479;28;20534;-49
2022/04/10 10:16:18;;;;;;;6.07;2.10;;;8.40;94.30;;;;;;5180295;28;20981;-50
2022/04/10 10:18:50;;;;;;;22.60;10.00;;;8.60;91.20;;;;;;5182829;28;20199;-50
2022/04/10 10:21:21;;;;;;;34.27;12.30;;;8.60;88.00;;;;;;5166635;28;20451;-49
2022/04/10 10:23:54;;;;;;;5.90;2.30;;;8.70;85.70;;;;;;5168897;28;20486;-50
2022/04/10 10:26:53;;;;;;;21.93;4.10;;;8.60;83.30;;;;;;5182773;28;20596;-51
2022/04/10 10:29:41;;;;;;;10.90;4.27;;;9.00;82.60;;;;;;5183208;28;20475;-53
2022/04/10 10:32:43;;;;;;;4.70;2.60;;;9.10;72.20;;;;;;5165626;28;20458;-48
2022/04/10 10:35:26;;;;;;;7.47;2.20;;;9.20;73.80;;;;;;5182809;28;20441;-50
2022/04/10 10:37:57;;;;;;;8.27;2.47;;;8.80;73.90;;;;;;5178973;28;20435;-50
2022/04/10 10:40:28;;;;;;;14.43;3.50;;;8.50;77.90;;;;;;5166267;28;20445;-49
2022/04/10 10:43:00;;;;;;;10.60;4.40;;;8.70;78.00;;;;;;5175887;28;20258;-51
2022/04/10 10:45:35;;;;;;;5.07;2.90;;;8.90;77.20;;;;;;5181166;28;20378;-49
2022/04/10 10:48:31;;;;;;;14.20;6.37;;;9.10;75.80;;;;;;5183741;28;20462;-52
2022/04/10 10:51:10;;;;;;;4.43;3.33;;;9.30;74.50;;;;;;5179387;28;20435;-49
2022/04/10 10:53:48;;;;;;;7.43;2.17;;;9.70;72.00;;;;;;5184389;28;20435;-51
2022/04/10 10:56:40;;;;;;;11.50;2.27;;;10.10;68.30;;;;;;5185012;28;20449;-49
2022/04/10 10:59:21;;;;;;;41.93;21.50;;;10.60;62.40;;;;;;5185255;28;20522;-51
2022/04/10 11:02:11;;;;;;;13.60;3.23;;;10.50;58.40;;;;;;5163574;28;20497;-51
2022/04/10 11:04:47;;;;;;;5.47;2.30;;;10.60;56.50;;;;;;5182367;28;20438;-51
2022/04/10 11:07:18;;;;;;;3.90;2.53;;;10.70;54.40;;;;;;5182846;28;20438;-50
2022/04/10 11:09:51;;;;;;;4.40;2.03;;;10.70;54.10;;;;;;5182024;28;20498;-50
2022/04/10 11:12:23;;;;;;;10.30;5.10;;;10.90;52.80;;;;;;5184745;28;20340;-50
2022/04/10 11:14:56;;;;;;;11.27;3.13;;;10.50;51.30;;;;;;5180768;28;20518;-49
2022/04/10 11:17:29;;;;;;;4.03;2.20;;;10.40;51.40;;;;;;5179887;28;20439;-50
2022/04/10 11:20:05;;;;;;;9.20;2.23;;;10.00;51.40;;;;;;5177700;28;20443;-49
2022/04/10 11:22:54;;;;;;;15.47;7.80;;;9.80;53.50;;;;;;5175767;28;20498;-49
2022/04/10 11:25:27;;;;;;;7.13;3.83;;;9.20;56.10;;;;;;5178029;28;20451;-51
2022/04/10 11:28:07;;;;;;;9.47;3.80;;;8.90;57.80;;;;;;5183202;28;20458;-50
2022/04/10 11:30:44;;;;;;;10.10;3.53;;;8.60;59.20;;;;;;5184763;28;20427;-48
2022/04/10 11:33:15;;;;;;;10.00;3.00;;;8.30;59.10;;;;;;5183514;28;21001;-53
2022/04/10 11:35:56;;;;;;;8.13;1.70;;;8.30;60.40;;;;;;5178902;28;20439;-57
2022/04/10 11:38:26;;;;;;;10.43;1.83;;;8.40;63.30;;;;;;5178827;28;20267;-52
2022/04/10 11:40:57;;;;;;;5.27;1.70;;;8.30;72.60;;;;;;5181160;28;20534;-52
2022/04/10 11:43:30;;;;;;;13.17;3.10;;;8.10;85.80;;;;;;5186811;28;20618;-51
2022/04/10 11:46:02;;;;;;;1.63;1.53;;;8.10;92.50;;;;;;5162977;28;20435;-49
2022/04/10 11:48:33;;;;;;;15.27;5.40;;;7.90;95.90;;;;;;5180330;28;20554;-51
2022/04/10 11:51:07;;;;;;;12.73;5.90;;;7.90;99.00;;;;;;5186708;28;20453;-52
2022/04/10 11:53:37;;;;;;;15.33;6.80;;;8.00;99.90;;;;;;5183350;28;20482;-48
2022/04/10 11:56:12;;;;;;;26.90;11.13;;;8.20;99.90;;;;;;5185625;28;20427;-55
2022/04/10 11:58:42;;;;;;;11.90;4.80;;;8.50;99.90;;;;;;5185666;28;20176;-52
2022/04/10 12:01:14;;;;;;;6.80;2.07;;;8.50;99.90;;;;;;5171119;28;20447;-49
2022/04/10 12:03:49;;;;;;;6.67;2.77;;;8.40;98.40;;;;;;5168176;28;20758;-48
2022/04/10 12:06:21;;;;;;;4.03;2.03;;;8.40;97.70;;;;;;5184964;28;20431;-50
2022/04/10 12:08:55;;;;;;;2.83;2.13;;;8.30;94.00;;;;;;5185377;28;20541;-52
2022/04/10 12:11:26;;;;;;;7.13;2.10;;;8.20;94.40;;;;;;5167143;28;20430;-49
2022/04/10 12:13:56;;;;;;;23.37;7.70;;;8.10;92.60;;;;;;5185349;28;20457;-53
2022/04/10 12:16:27;;;;;;;3.20;2.17;;;8.20;91.20;;;;;;5167162;28;20679;-49
2022/04/10 12:18:57;;;;;;;6.33;1.90;;;8.30;90.60;;;;;;5184059;28;20185;-51
2022/04/10 12:21:28;;;;;;;9.10;3.73;;;8.50;89.50;;;;;;5184650;28;20191;-51
2022/04/10 12:24:03;;;;;;;24.73;10.80;;;8.70;88.50;;;;;;5184216;28;20195;-51
2022/04/10 12:26:35;;;;;;;5.63;2.60;;;8.90;86.40;;;;;;5188813;28;20182;-52
2022/04/10 12:29:05;;;;;;;12.37;3.73;;;9.00;81.40;;;;;;5185311;28;20542;-52
2022/04/10 12:31:37;;;;;;;3.70;2.00;;;9.00;82.40;;;;;;5181500;28;20515;-51
2022/04/10 12:34:11;;;;;;;7.70;2.60;;;9.20;77.70;;;;;;5177645;28;20529;-51
2022/04/10 12:36:47;;;;;;;2.10;1.90;;;9.20;76.10;;;;;;5183915;28;20558;-51
2022/04/10 12:39:28;;;;;;;8.20;3.27;;;9.10;75.70;;;;;;5182964;28;20438;-49
2022/04/10 12:42:03;;;;;;;29.90;10.47;;;9.20;77.20;;;;;;5186607;28;20459;-51
2022/04/10 12:44:37;;;;;;;24.90;10.27;;;9.30;72.40;;;;;;5191591;28;20941;-50
2022/04/10 12:47:09;;;;;;;7.83;2.83;;;9.10;69.30;;;;;;5189412;28;20446;-51
2022/04/10 12:49:40;;;;;;;47.27;21.80;;;9.00;71.10;;;;;;5188319;28;20864;-48
2022/04/10 12:52:18;;;;;;;77.60;34.10;;;8.90;74.00;;;;;;5179157;28;20849;-50
2022/04/10 12:54:50;;;;;;;40.27;18.97;;;8.70;75.60;;;;;;5168725;28;20534;-51
2022/04/10 12:57:28;;;;;;;17.03;7.00;;;8.60;74.00;;;;;;5187045;28;20462;-49
2022/04/10 12:59:58;;;;;;;9.00;2.70;;;8.70;74.90;;;;;;5187163;28;20446;-53
2022/04/10 13:02:35;;;;;;;9.17;2.30;;;8.60;70.20;;;;;;5163472;28;20974;-52
2022/04/10 13:05:11;;;;;;;5.57;2.77;;;8.70;70.00;;;;;;5181772;28;20180;-49
2022/04/10 13:08:02;;;;;;;6.97;3.90;;;8.80;69.50;;;;;;5188138;28;20818;-49
2022/04/10 13:10:49;;;;;;;8.90;2.23;;;8.70;66.40;;;;;;5187296;28;20667;-50
2022/04/10 13:13:20;;;;;;;2.60;1.43;;;8.70;68.30;;;;;;5187716;28;20454;-49
2022/04/10 13:15:51;;;;;;;14.63;3.00;;;9.00;69.10;;;;;;5181613;28;20439;-48
2022/04/10 13:18:26;;;;;;;29.93;8.87;;;9.10;67.70;;;;;;5186947;28;20446;-51
2022/04/10 13:20:57;;;;;;;15.90;7.40;;;9.10;67.00;;;;;;5182700;28;20504;-48
2022/04/10 13:23:27;;;;;;;6.00;4.33;;;9.00;68.30;;;;;;5163282;28;20830;-48